EGSQ weather

Clacton Airport
Clacton-on-Sea, England, United Kingdom

Public forecast

Using degrees Celsius for public forecast. Weather courtesy of forecast.io.

METAR (pilot weather report)

Closest report is Southend Airport, 20.6 nm (38.2 km) SW. Retrieved 2019/04/24 01:50 UTC (32 minutes ago):

EGMC 240150Z 35002KT 8000 NSC 07/05 Q0994

TAF (pilot weather forecast)

Forecast is more than 12 hours old.

Closest forecast is Southend Airport, 20.6 nm (38.2 km) SW. Retrieved 2016/04/18 18:00 UTC (3 years ago):

TAF EGMC 181658Z 1818/1903 28008KT 9999 BKN045